Terminal Aerodrome Forecast
Issued by NWS

Home | Current Version | Previous Version | Graphics & Text | Print | Product List | Glossary On
Versions: 1 2 3 4 5 6 7 8 9 10 11 12 13 14 15 16 17 18
000
FTUS43 KGRB 240258 AAA
TAFCWA
TAF AMD
KCWA 240258Z 2403/2424 15007KT P6SM VCSH SCT040 BKN070
      TEMPO 2403/2406 4SM -SHRA BKN040
     FM240600 17007KT 6SM SHRA BKN025 OVC040 WS020/21035KT
     FM240900 21008KT 5SM -SHRA BR OVC012 WS020/21035KT
     FM241500 26010G19KT P6SM SCT025 BKN050
     FM242000 27010G18KT P6SM SCT050
      AMD LTD TO CLD VIS AND WIND TIL 241100=

USA.gov is the U.S. government's official web portal to all federal, state and local government web resources and services.